Time;durP1;ratioP1;P1;durP2;ratioP2;P2;SDS_P1;SDS_P2;PMS_P1;PMS_P2;Temp;Humidity;BMP_temperature;BMP_pressure;BME280_temperature;BME280_humidity;BME280_pressure;Samples;Min_cycle;Max_cycle;Signal;HPM_P1;HPM_P2
2023/10/23 00:00:51;;;;;;;1999.90;999.90;;;;;;;7.99;100.00;94266.06;5004303;28;20345;-46
2023/10/23 00:03:17;;;;;;;1999.90;999.90;;;;;;;8.01;100.00;94271.09;5003437;28;20164;-46
2023/10/23 00:05:42;;;;;;;1999.90;999.90;;;;;;;7.99;100.00;94274.22;5003854;28;20215;-45
2023/10/23 00:08:08;;;;;;;1999.90;999.90;;;;;;;7.96;100.00;94272.31;5006893;28;20194;-48
2023/10/23 00:10:33;;;;;;;1999.90;999.90;;;;;;;7.92;100.00;94268.88;5007300;28;20164;-47
2023/10/23 00:12:58;;;;;;;1999.90;999.90;;;;;;;7.92;100.00;94276.25;5007047;28;20168;-47
2023/10/23 00:15:24;;;;;;;1999.90;999.90;;;;;;;7.91;100.00;94264.66;5007238;28;20168;-48
2023/10/23 00:17:49;;;;;;;1999.90;999.90;;;;;;;7.91;100.00;94258.44;5007298;28;20192;-46
2023/10/23 00:20:15;;;;;;;1999.90;999.90;;;;;;;7.90;100.00;94254.94;5007648;28;20172;-46
2023/10/23 00:22:40;;;;;;;1999.90;999.90;;;;;;;7.91;100.00;94251.06;5007237;28;20164;-47
2023/10/23 00:25:06;;;;;;;1999.90;999.90;;;;;;;7.90;100.00;94238.63;5007380;28;20352;-46
2023/10/23 00:27:31;;;;;;;1999.90;999.90;;;;;;;7.89;100.00;94239.03;5007182;28;20193;-46
2023/10/23 00:29:56;;;;;;;1999.90;999.90;;;;;;;7.83;100.00;94240.72;5007610;28;20164;-48
2023/10/23 00:32:22;;;;;;;1999.90;999.90;;;;;;;7.79;100.00;94235.31;5007418;28;20164;-48
2023/10/23 00:34:47;;;;;;;1999.90;999.90;;;;;;;7.79;100.00;94235.31;5007066;28;20167;-47
2023/10/23 00:37:13;;;;;;;1999.90;999.90;;;;;;;7.76;100.00;94236.13;5007364;28;20245;-45
2023/10/23 00:39:39;;;;;;;1999.90;999.90;;;;;;;7.74;100.00;94238.50;5006661;28;20223;-47
2023/10/23 00:42:04;;;;;;;1999.90;999.90;;;;;;;7.74;100.00;94241.22;5007120;28;20195;-45
2023/10/23 00:44:30;;;;;;;1999.90;999.90;;;;;;;7.73;100.00;94230.78;5006804;28;20402;-46
2023/10/23 00:46:55;;;;;;;1999.90;999.90;;;;;;;7.72;100.00;94227.28;5007249;28;20164;-44
2023/10/23 00:49:21;;;;;;;1999.90;999.90;;;;;;;7.70;100.00;94232.38;5007179;28;20280;-46
2023/10/23 00:51:46;;;;;;;1999.90;999.90;;;;;;;7.69;100.00;94224.63;5007193;28;20188;-45
2023/10/23 00:54:14;;;;;;;1999.90;999.90;;;;;;;7.72;100.00;94224.56;5006755;28;20171;-47
2023/10/23 00:56:40;;;;;;;1999.90;999.90;;;;;;;7.75;100.00;94223.00;5006547;28;20191;-46
2023/10/23 00:59:07;;;;;;;1999.90;999.90;;;;;;;7.76;100.00;94230.72;5006527;28;20164;-46
2023/10/23 01:01:33;;;;;;;1999.90;999.90;;;;;;;7.79;100.00;94212.84;5006425;28;20196;-45
2023/10/23 01:03:59;;;;;;;1999.90;999.90;;;;;;;7.84;100.00;94212.34;5006878;28;20218;-45
2023/10/23 01:06:26;;;;;;;1999.90;999.90;;;;;;;7.85;100.00;94205.72;5006295;28;20176;-46
2023/10/23 01:08:51;;;;;;;1999.90;999.90;;;;;;;7.87;100.00;94201.41;5006825;28;20356;-45
2023/10/23 01:11:17;;;;;;;1999.90;999.90;;;;;;;7.88;100.00;94200.25;5006710;28;20175;-45
2023/10/23 01:13:42;;;;;;;1999.90;999.90;;;;;;;7.90;100.00;94203.28;5006704;28;20247;-46
2023/10/23 01:16:07;;;;;;;1999.90;999.90;;;;;;;7.93;100.00;94213.34;5006113;28;20260;-49
2023/10/23 01:18:33;;;;;;;1999.90;999.90;;;;;;;7.97;100.00;94214.03;5006032;28;20175;-46
2023/10/23 01:20:58;;;;;;;1999.90;999.90;;;;;;;7.96;100.00;94209.81;5006545;28;20398;-48
2023/10/23 01:23:26;;;;;;;1999.90;999.90;;;;;;;7.94;100.00;94220.31;5006017;28;20168;-45
2023/10/23 01:25:52;;;;;;;1999.90;999.90;;;;;;;7.92;100.00;94216.47;5005972;28;20168;-45
2023/10/23 01:28:17;;;;;;;1999.90;999.90;;;;;;;7.91;100.00;94220.38;5005907;28;20167;-46
2023/10/23 01:30:43;;;;;;;1999.90;999.90;;;;;;;7.90;100.00;94219.59;5005883;28;20187;-47
2023/10/23 01:33:08;;;;;;;1999.90;999.90;;;;;;;7.88;100.00;94238.28;5005851;28;20160;-46
2023/10/23 01:35:33;;;;;;;1999.90;999.90;;;;;;;7.86;100.00;94234.44;5005808;28;20366;-46
2023/10/23 01:37:59;;;;;;;1999.90;999.90;;;;;;;7.85;100.00;94239.09;5006187;28;20211;-47
2023/10/23 01:40:24;;;;;;;1999.90;999.90;;;;;;;7.82;100.00;94242.66;5005450;28;20223;-45
2023/10/23 01:42:49;;;;;;;1999.90;999.90;;;;;;;7.82;100.00;94248.09;5005997;28;20172;-46
2023/10/23 01:45:15;;;;;;;1999.90;999.90;;;;;;;7.80;100.00;94247.75;5006273;28;20160;-46
2023/10/23 01:47:41;;;;;;;1999.90;999.90;;;;;;;7.77;100.00;94251.28;5006277;28;20179;-47
2023/10/23 01:50:06;;;;;;;1999.90;999.90;;;;;;;7.76;100.00;94241.56;5005444;28;20242;-45
2023/10/23 01:52:32;;;;;;;1999.90;999.90;;;;;;;7.75;100.00;94250.16;5005496;28;20192;-49
2023/10/23 01:55:00;;;;;;;1999.90;999.90;;;;;;;7.76;100.00;94257.88;5005927;28;20164;-47
2023/10/23 01:57:25;;;;;;;1999.90;999.90;;;;;;;7.76;100.00;94266.03;5005299;28;20207;-45
2023/10/23 01:59:52;;;;;;;1999.90;999.90;;;;;;;7.77;100.00;94253.22;5005823;28;20178;-46
2023/10/23 02:02:17;;;;;;;1999.90;999.90;;;;;;;7.73;100.00;94245.13;5005284;28;20214;-45
2023/10/23 02:04:42;;;;;;;1999.90;999.90;;;;;;;7.74;100.00;94254.81;5005228;28;20249;-49
2023/10/23 02:07:08;;;;;;;1999.90;999.90;;;;;;;7.73;100.00;94257.94;5005445;28;20242;-46
2023/10/23 02:09:33;;;;;;;1999.90;999.90;;;;;;;7.72;100.00;94243.59;5005073;28;20175;-46
2023/10/23 02:12:00;;;;;;;1999.90;999.90;;;;;;;7.65;100.00;94232.81;5005187;28;20187;-47
2023/10/23 02:14:26;;;;;;;1999.90;999.90;;;;;;;7.58;100.00;94229.47;5004976;28;20164;-45
2023/10/23 02:16:51;;;;;;;1999.90;999.90;;;;;;;7.47;100.00;94229.63;5005287;28;20196;-46
2023/10/23 02:19:16;;;;;;;1999.90;999.90;;;;;;;7.44;100.00;94241.34;5004946;28;20419;-46
2023/10/23 02:21:49;;;;;;;1999.90;999.90;;;;;;;7.42;100.00;94251.81;5005027;28;20164;-45
2023/10/23 02:24:15;;;;;;;1999.90;999.90;;;;;;;7.46;100.00;94244.38;5005311;28;20195;-47
2023/10/23 02:26:40;;;;;;;1999.90;999.90;;;;;;;7.47;100.00;94226.91;5004869;28;20353;-45
2023/10/23 02:29:05;;;;;;;1999.90;999.90;;;;;;;7.44;100.00;94225.03;5004741;28;20164;-45
2023/10/23 02:31:31;;;;;;;1999.90;999.90;;;;;;;7.42;100.00;94238.25;5004406;28;20171;-48
2023/10/23 02:33:56;;;;;;;1999.90;999.90;;;;;;;7.42;100.00;94232.81;5005011;28;20175;-47
2023/10/23 02:36:21;;;;;;;1999.90;999.90;;;;;;;7.39;100.00;94222.75;5005179;28;20195;-45
2023/10/23 02:38:47;;;;;;;1999.90;999.90;;;;;;;7.34;100.00;94214.31;5004606;28;20192;-45
2023/10/23 02:41:12;;;;;;;1999.90;999.90;;;;;;;7.34;100.00;94219.75;5005044;28;20279;-45
2023/10/23 02:43:37;;;;;;;1999.90;999.90;;;;;;;7.31;100.00;94221.34;5004391;28;20171;-46
2023/10/23 02:46:06;;;;;;;1999.90;999.90;;;;;;;7.31;100.00;94215.91;5004576;28;20243;-47
2023/10/23 02:48:31;;;;;;;1999.90;999.90;;;;;;;7.25;100.00;94197.78;5004437;28;20251;-47
2023/10/23 02:50:58;;;;;;;1999.90;999.90;;;;;;;7.19;100.00;94208.34;5004938;28;20164;-48
2023/10/23 02:53:24;;;;;;;1999.90;999.90;;;;;;;7.15;100.00;94202.19;5004444;28;20210;-50
2023/10/23 02:55:50;;;;;;;1999.90;999.90;;;;;;;7.13;100.00;94204.53;5004872;28;20190;-48
2023/10/23 02:58:17;;;;;;;1999.90;999.90;;;;;;;7.12;100.00;94197.59;5004313;28;20195;-45
2023/10/23 03:00:42;;;;;;;1999.90;999.90;;;;;;;7.12;100.00;94186.72;5004807;28;20191;-45
2023/10/23 03:03:08;;;;;;;1999.90;999.90;;;;;;;7.09;100.00;94187.53;5004893;28;20167;-45
2023/10/23 03:05:34;;;;;;;1999.90;999.90;;;;;;;7.01;100.00;94186.13;5004280;28;20168;-47
2023/10/23 03:07:59;;;;;;;1999.90;999.90;;;;;;;7.00;100.00;94192.72;5005063;28;20209;-46
2023/10/23 03:10:26;;;;;;;1999.90;999.90;;;;;;;6.98;100.00;94186.94;5004266;28;20239;-54
2023/10/23 03:12:51;;;;;;;1999.90;999.90;;;;;;;7.01;100.00;94190.75;5003960;28;20168;-51
2023/10/23 03:15:17;;;;;;;1999.90;999.90;;;;;;;7.05;100.00;94192.25;5004209;28;20164;-47
2023/10/23 03:17:42;;;;;;;1999.90;999.90;;;;;;;7.04;100.00;94195.38;5004247;28;20403;-45
2023/10/23 03:20:08;;;;;;;1999.90;999.90;;;;;;;7.03;100.00;94200.03;5004755;28;20168;-46
2023/10/23 03:22:34;;;;;;;1999.90;999.90;;;;;;;7.03;100.00;94200.03;5004208;28;20251;-45
2023/10/23 03:24:59;;;;;;;1999.90;999.90;;;;;;;7.04;100.00;94201.59;5004645;28;20168;-45
2023/10/23 03:27:25;;;;;;;1999.90;999.90;;;;;;;7.07;100.00;94206.19;5004550;28;20172;-45
2023/10/23 03:29:50;;;;;;;1999.90;999.90;;;;;;;7.08;100.00;94202.31;5004039;28;20164;-48
2023/10/23 03:32:15;;;;;;;1999.90;999.90;;;;;;;7.08;100.00;94202.31;5004605;28;20240;-45
2023/10/23 03:34:41;;;;;;;1999.90;999.90;;;;;;;7.07;100.00;94206.19;5004604;28;20243;-47
2023/10/23 03:37:06;;;;;;;1999.90;999.90;;;;;;;7.05;100.00;94202.34;5004389;28;20195;-45
2023/10/23 03:39:31;;;;;;;1999.90;999.90;;;;;;;7.01;100.00;94202.41;5006883;28;20230;-46
2023/10/23 03:41:57;;;;;;;1999.90;999.90;;;;;;;6.97;100.00;94201.69;5009182;28;20167;-45
2023/10/23 03:44:22;;;;;;;1999.90;999.90;;;;;;;6.93;100.00;94198.25;5011202;28;20174;-47
2023/10/23 03:46:47;;;;;;;1999.90;999.90;;;;;;;6.91;100.00;94208.72;5011078;28;20173;-45
2023/10/23 03:49:13;;;;;;;1999.90;999.90;;;;;;;6.88;100.00;94210.31;5011381;28;20199;-46
2023/10/23 03:51:38;;;;;;;1999.90;999.90;;;;;;;6.87;100.00;94216.16;5011569;28;20175;-45
2023/10/23 03:54:03;;;;;;;1999.90;999.90;;;;;;;6.88;100.00;94209.53;5011431;28;20171;-45
2023/10/23 03:56:29;;;;;;;1999.90;999.90;;;;;;;6.89;100.00;94208.38;5011385;28;20401;-46
2023/10/23 03:58:54;;;;;;;1999.90;999.90;;;;;;;6.88;100.00;94217.69;5010811;28;20163;-44
2023/10/23 04:01:19;;;;;;;1999.90;999.90;;;;;;;6.85;100.00;94213.09;5011320;28;20256;-47
2023/10/23 04:03:45;;;;;;;1999.90;999.90;;;;;;;6.78;100.00;94218.63;5010805;28;20209;-49
2023/10/23 04:06:10;;;;;;;1999.90;999.90;;;;;;;6.78;100.00;94216.66;5010742;28;20175;-48
2023/10/23 04:08:35;;;;;;;1999.90;999.90;;;;;;;6.76;100.00;94219.03;5010539;28;20247;-46
2023/10/23 04:11:01;;;;;;;1999.90;999.90;;;;;;;6.72;100.00;94217.53;5010529;28;20380;-45
2023/10/23 04:13:26;;;;;;;1999.90;999.90;;;;;;;6.70;100.00;94222.56;5010505;28;20163;-48
2023/10/23 04:15:58;;;;;;;1999.90;999.90;;;;;;;6.66;100.00;94219.91;5010278;28;20164;-46
2023/10/23 04:18:27;;;;;;;1999.90;999.90;;;;;;;6.60;100.00;94215.34;5010138;28;20216;-46
2023/10/23 04:21:09;;;;;;;1999.90;999.90;;;;;;;6.57;100.00;94218.88;5011003;28;20246;-47
2023/10/23 04:23:36;;;;;;;1999.90;999.90;;;;;;;6.52;100.00;94209.25;5010126;28;20200;-46
2023/10/23 04:26:02;;;;;;;1999.90;999.90;;;;;;;6.51;100.00;94206.94;5010329;28;20238;-45
2023/10/23 04:28:27;;;;;;;1999.90;999.90;;;;;;;6.47;100.00;94211.63;5010274;28;20169;-46
2023/10/23 04:30:55;;;;;;;1999.90;999.90;;;;;;;6.47;100.00;94203.50;5010754;28;20167;-45
2023/10/23 04:33:23;;;;;;;1999.90;999.90;;;;;;;6.48;100.00;94199.59;5010549;28;20336;-45
2023/10/23 04:35:53;;;;;;;1999.90;999.90;;;;;;;6.47;100.00;94203.50;5010559;28;20159;-46
2023/10/23 04:38:19;;;;;;;1999.90;999.90;;;;;;;6.46;100.00;94196.53;5010537;28;20173;-46
2023/10/23 04:40:45;;;;;;;1999.90;999.90;;;;;;;6.45;100.00;94203.91;5010130;28;20233;-45
2023/10/23 04:43:11;;;;;;;1999.90;999.90;;;;;;;6.45;100.00;94193.06;5010051;28;20163;-48
2023/10/23 04:45:37;;;;;;;1999.90;999.90;;;;;;;6.41;100.00;94186.16;5010418;28;20198;-46
2023/10/23 04:48:03;;;;;;;1999.90;999.90;;;;;;;6.39;100.00;94188.50;5010165;28;20174;-46
2023/10/23 04:50:37;;;;;;;1999.90;999.90;;;;;;;6.35;100.00;94185.06;5009947;28;20171;-46
2023/10/23 04:53:03;;;;;;;1999.90;999.90;;;;;;;6.29;100.00;94190.16;5009328;28;20205;-46
2023/10/23 04:55:47;;;;;;;1999.90;999.90;;;;;;;6.28;100.00;94190.56;5010334;28;20178;-46
2023/10/23 04:58:12;;;;;;;1999.90;999.90;;;;;;;6.26;100.00;94184.75;5010597;28;20163;-47
2023/10/23 05:00:38;;;;;;;1999.90;999.90;;;;;;;6.25;100.00;94183.25;5010180;28;20177;-45
2023/10/23 05:03:04;;;;;;;1999.90;999.90;;;;;;;6.22;100.00;94184.03;5010197;28;20166;-46
2023/10/23 05:05:33;;;;;;;1999.90;999.90;;;;;;;6.23;100.00;94177.47;5010178;28;20163;-46
2023/10/23 05:08:00;;;;;;;1999.90;999.90;;;;;;;6.25;100.00;94180.53;5009572;28;20197;-46
2023/10/23 05:10:25;;;;;;;1999.90;999.90;;;;;;;6.25;100.00;94180.53;5009407;28;20407;-48
2023/10/23 05:12:50;;;;;;;1999.90;999.90;;;;;;;6.24;100.00;94170.88;5009867;28;20362;-47
2023/10/23 05:15:17;;;;;;;1999.90;999.90;;;;;;;6.24;100.00;94176.28;5009827;28;20177;-48
2023/10/23 05:17:42;;;;;;;1999.90;999.90;;;;;;;6.29;100.00;94181.25;5009317;28;20202;-47
2023/10/23 05:20:08;;;;;;;1999.90;999.90;;;;;;;6.28;100.00;94185.91;5009368;28;20170;-48
2023/10/23 05:22:33;;;;;;;1999.90;999.90;;;;;;;6.31;100.00;94176.22;5009998;28;20166;-47
2023/10/23 05:24:59;;;;;;;1999.90;999.90;;;;;;;6.30;100.00;94182.78;5009817;28;20167;-47
2023/10/23 05:27:24;;;;;;;1999.90;999.90;;;;;;;6.31;100.00;94192.47;5009162;28;20166;-46
2023/10/23 05:29:50;;;;;;;1999.90;999.90;;;;;;;6.33;100.00;94192.81;5009851;28;20208;-46
2023/10/23 05:32:15;;;;;;;1999.90;999.90;;;;;;;6.36;100.00;94186.59;5009097;28;20166;-48
2023/10/23 05:34:44;;;;;;;1999.90;999.90;;;;;;;6.37;100.00;94174.56;5009492;28;20246;-47
2023/10/23 05:37:09;;;;;;;1999.90;999.90;;;;;;;6.38;100.00;94178.84;5009608;28;20198;-45
2023/10/23 05:39:35;;;;;;;1999.90;999.90;;;;;;;6.39;100.00;94175.72;5008839;28;20221;-45
2023/10/23 05:42:00;;;;;;;1999.90;999.90;;;;;;;6.43;100.00;94178.38;5009480;28;20160;-47
2023/10/23 05:44:25;;;;;;;1999.90;999.90;;;;;;;6.46;100.00;94180.28;5008844;28;20254;-47
2023/10/23 05:46:50;;;;;;;1999.90;999.90;;;;;;;6.43;100.00;94181.09;5008816;28;20167;-50
2023/10/23 05:49:16;;;;;;;1999.90;999.90;;;;;;;6.43;100.00;94189.22;5008623;28;20166;-46
2023/10/23 05:51:41;;;;;;;1999.90;999.90;;;;;;;6.40;100.00;94190.81;5009268;28;20183;-52
2023/10/23 05:54:08;;;;;;;1999.90;999.90;;;;;;;6.43;100.00;94184.56;5009388;28;20170;-50
2023/10/23 05:56:33;;;;;;;1999.90;999.90;;;;;;;6.50;100.00;94189.13;5008993;28;20197;-49
2023/10/23 05:58:59;;;;;;;1999.90;999.90;;;;;;;6.59;100.00;94189.41;5009398;28;20166;-49
2023/10/23 06:01:24;;;;;;;1999.90;999.90;;;;;;;6.65;100.00;94193.19;5008772;28;20160;-46
2023/10/23 06:03:49;;;;;;;1999.90;999.90;;;;;;;6.67;100.00;94193.56;5008397;28;20352;-49
2023/10/23 06:06:15;;;;;;;1999.90;999.90;;;;;;;6.69;100.00;94196.63;5008142;28;20179;-47
2023/10/23 06:08:41;;;;;;;1999.90;999.90;;;;;;;6.74;100.00;94198.91;5008430;28;20229;-45
2023/10/23 06:11:08;;;;;;;1999.90;999.90;;;;;;;6.83;100.00;94207.31;5008790;28;20171;-47
2023/10/23 06:13:33;;;;;;;1999.90;999.90;;;;;;;6.86;100.00;94201.06;5008294;28;20167;-50
2023/10/23 06:16:02;;;;;;;1999.90;999.90;;;;;;;6.95;100.00;94204.03;5008090;28;20163;-48
2023/10/23 06:18:28;;;;;;;1999.90;999.90;;;;;;;6.98;100.00;94203.22;5007978;28;20170;-49
2023/10/23 06:20:58;;;;;;;1999.90;999.90;;;;;;;7.06;100.00;94204.66;5008746;28;20171;-49
2023/10/23 06:23:24;;;;;;;1999.90;999.90;;;;;;;7.18;100.00;94190.53;5008064;28;20159;-52
2023/10/23 06:25:55;;;;;;;1999.90;999.90;;;;;;;7.27;100.00;94203.56;5008149;28;20174;-46
2023/10/23 06:28:21;;;;;;;1999.90;999.90;;;;;;;7.32;100.00;94194.97;5008346;28;20449;-47
2023/10/23 06:30:47;;;;;;;1999.90;999.90;;;;;;;7.61;100.00;94185.94;5008702;28;20166;-45
2023/10/23 06:33:12;;;;;;;1999.90;999.90;;;;;;;7.88;100.00;94181.22;5007922;28;20213;-46
2023/10/23 06:35:37;;;;;;;1999.90;999.90;;;;;;;8.18;100.00;94180.25;5007999;28;20167;-47
2023/10/23 06:38:04;;;;;;;1999.90;999.90;;;;;;;8.40;100.00;94182.19;5008222;28;20266;-48
2023/10/23 06:40:29;;;;;;;1999.90;999.90;;;;;;;8.60;100.00;94207.44;5007563;28;20335;-45
2023/10/23 06:42:54;;;;;;;1999.90;999.90;;;;;;;8.97;100.00;94242.47;5008404;28;20444;-46
2023/10/23 06:45:20;;;;;;;1999.90;999.90;;;;;;;9.17;100.00;94310.50;5007771;28;20458;-47
2023/10/23 06:47:49;;;;;;;1999.90;999.90;;;;;;;9.46;100.00;94404.09;5007998;28;20178;-47
2023/10/23 06:50:15;;;;;;;1999.90;999.90;;;;;;;10.04;100.00;94498.69;5007929;28;20193;-50
2023/10/23 06:52:41;;;;;;;1999.90;999.90;;;;;;;10.37;100.00;94638.78;5008115;28;20172;-46
2023/10/23 06:55:07;;;;;;;1999.90;999.90;;;;;;;10.08;100.00;94770.25;5007786;28;20237;-45
2023/10/23 06:57:32;;;;;;;1999.90;999.90;;;;;;;9.82;100.00;94841.94;5007720;28;20277;-45
2023/10/23 06:59:58;;;;;;;1999.90;999.90;;;;;;;9.78;100.00;94868.47;5007623;28;20174;-47
2023/10/23 07:02:23;;;;;;;1999.90;999.90;;;;;;;9.60;100.00;94897.94;5007445;28;20166;-49
2023/10/23 07:04:48;;;;;;;1999.90;999.90;;;;;;;9.42;100.00;94905.53;5008050;28;20171;-46
2023/10/23 07:07:14;;;;;;;1999.90;999.90;;;;;;;9.87;100.00;94915.09;5007472;28;20170;-47
2023/10/23 07:09:39;;;;;;;1999.90;999.90;;;;;;;10.70;100.00;94938.09;5007513;28;20178;-47
2023/10/23 07:12:05;;;;;;;1999.90;999.90;;;;;;;12.20;100.00;94986.47;5008022;28;20174;-48
2023/10/23 07:14:30;;;;;;;1999.90;999.90;;;;;;;13.87;100.00;95032.22;5007824;28;20364;-50
2023/10/23 07:16:55;;;;;;;1999.90;999.90;;;;;;;14.82;100.00;95075.03;5008799;28;20266;-49
2023/10/23 07:19:21;;;;;;;1999.90;999.90;;;;;;;15.09;100.00;95094.66;5011615;28;20238;-45
2023/10/23 07:21:46;;;;;;;1999.90;999.90;;;;;;;15.70;100.00;95094.31;5011618;28;20159;-48
2023/10/23 07:24:11;;;;;;;1999.90;999.90;;;;;;;15.61;100.00;95119.75;5011939;28;20163;-52
2023/10/23 07:26:37;;;;;;;1999.90;999.90;;;;;;;16.52;100.00;95115.91;5011913;28;20176;-50
2023/10/23 07:29:02;;;;;;;1999.90;999.90;;;;;;;16.64;100.00;95126.09;5011539;28;20164;-51
2023/10/23 07:31:28;;;;;;;1999.90;999.90;;;;;;;17.50;100.00;95139.06;5011797;28;20163;-50
2023/10/23 07:33:53;;;;;;;1999.90;999.90;;;;;;;17.99;100.00;95142.63;5011391;28;20163;-49
2023/10/23 07:36:18;;;;;;;1999.90;999.90;;;;;;;18.31;100.00;95142.03;5011165;28;20198;-48
2023/10/23 07:38:44;;;;;;;1999.90;999.90;;;;;;;17.91;100.00;95144.09;5011233;28;20191;-47
2023/10/23 07:41:11;;;;;;;1999.90;999.90;;;;;;;17.63;100.00;95142.50;5007923;28;20219;-51
2023/10/23 07:43:37;;;;;;;1999.90;999.90;;;;;;;17.85;100.00;95140.44;5008506;28;20461;-47
2023/10/23 07:46:08;;;;;;;1999.90;999.90;;;;;;;18.11;100.00;95116.84;5007855;28;20247;-51
2023/10/23 07:48:33;;;;;;;1999.90;999.90;;;;;;;18.46;100.00;95116.13;5008564;28;20164;-48
2023/10/23 07:50:59;;;;;;;1999.90;999.90;;;;;;;17.27;100.00;95109.16;5007837;28;20187;-49
2023/10/23 07:53:26;;;;;;;1999.90;999.90;;;;;;;16.55;100.00;95105.97;5007621;28;20172;-46
2023/10/23 07:55:51;;;;;;;1999.90;999.90;;;;;;;15.85;100.00;95098.13;5007919;28;20192;-48
2023/10/23 07:58:17;;;;;;;1999.90;999.90;;;;;;;15.12;100.00;95099.25;5007658;28;20191;-47
2023/10/23 08:00:43;;;;;;;1999.90;999.90;;;;;;;14.62;100.00;95090.94;5007625;28;20175;-48
2023/10/23 08:03:09;;;;;;;1999.90;999.90;;;;;;;14.39;100.00;95101.41;5008390;28;20166;-48
2023/10/23 08:05:34;;;;;;;1999.90;999.90;;;;;;;14.12;100.00;95093.47;5007382;28;20164;-48
2023/10/23 08:08:00;;;;;;;1999.90;999.90;;;;;;;14.02;100.00;95088.28;5007488;28;20168;-48
2023/10/23 08:10:26;;;;;;;1999.90;999.90;;;;;;;13.75;100.00;95090.53;5007958;28;20172;-49
2023/10/23 08:12:51;;;;;;;1999.90;999.90;;;;;;;14.21;100.00;95079.13;5007863;28;20172;-45
2023/10/23 08:15:16;;;;;;;1999.90;999.90;;;;;;;14.73;100.00;95083.16;5007347;28;20202;-52
2023/10/23 08:17:42;;;;;;;1999.90;999.90;;;;;;;15.87;100.00;95082.72;5007195;28;20221;-49
2023/10/23 08:20:07;;;;;;;1999.90;999.90;;;;;;;16.05;100.00;95088.38;5006870;28;20247;-49
2023/10/23 08:22:34;;;;;;;1999.90;999.90;;;;;;;15.30;100.00;95085.72;5007894;28;20168;-49
2023/10/23 08:24:59;;;;;;;1999.90;999.90;;;;;;;14.72;100.00;95089.84;5007933;28;20179;-48
2023/10/23 08:27:24;;;;;;;1999.90;999.90;;;;;;;14.36;100.00;95092.09;5007041;28;20168;-48
2023/10/23 08:29:50;;;;;;;1999.90;999.90;;;;;;;14.16;100.00;95083.16;5007507;28;20194;-48
2023/10/23 08:32:16;;;;;;;1999.90;999.90;;;;;;;15.04;100.00;95086.94;5007505;28;20243;-54
2023/10/23 08:34:41;;;;;;;1999.90;999.90;;;;;;;15.42;100.00;95073.19;5007676;28;20175;-53
2023/10/23 08:37:07;;;;;;;1999.90;999.90;;;;;;;16.22;100.00;95075.22;5007265;28;20191;-52
2023/10/23 08:39:32;;;;;;;1999.90;999.90;;;;;;;16.97;100.00;95087.88;5009905;28;20215;-49
2023/10/23 08:41:59;;;;;;;1999.90;999.90;;;;;;;17.22;100.00;95096.72;5010431;28;20159;-47
2023/10/23 08:44:25;;;;;;;1999.90;999.90;;;;;;;17.86;100.00;95092.22;5009699;28;20179;-49
2023/10/23 08:46:50;;;;;;;1999.90;999.90;;;;;;;17.31;100.00;95082.97;5010196;28;20167;-47
2023/10/23 08:49:16;;;;;;;1999.90;999.90;;;;;;;17.67;100.00;95087.88;5010449;28;20183;-60
2023/10/23 08:51:42;;;;;;;1999.90;999.90;;;;;;;17.99;100.00;95071.50;5010372;28;20167;-52
2023/10/23 08:54:12;;;;;;;1999.90;999.90;;;;;;;18.81;100.00;95075.06;5009847;28;20160;-58
2023/10/23 08:56:41;;;;;;;1999.90;999.90;;;;;;;18.97;100.00;95077.47;5009726;28;20199;-56
2023/10/23 08:59:09;;;;;;;1999.90;999.90;;;;;;;18.77;100.00;95074.47;5009758;28;20198;-58
2023/10/23 09:01:34;;;;;;;1999.90;999.90;;;;;;;18.20;100.00;95072.59;5010291;28;20163;-54
2023/10/23 09:04:00;;;;;;;1999.90;999.90;;;;;;;17.56;100.00;95071.72;5009749;28;20182;-54
2023/10/23 09:06:26;;;;;;;1999.90;999.90;;;;;;;17.02;100.00;95065.19;5009620;28;20397;-55
2023/10/23 09:08:52;;;;;;;1999.90;999.90;;;;;;;17.76;100.00;95049.22;5009596;28;20164;-54
2023/10/23 09:11:17;;;;;;;1999.90;999.90;;;;;;;17.44;100.00;95049.78;5010381;28;20199;-57
2023/10/23 09:13:42;;;;;;;1999.90;999.90;;;;;;;18.11;100.00;95043.00;5009574;28;20540;-56
2023/10/23 09:16:10;;;;;;;1999.90;999.90;;;;;;;18.03;100.00;95035.47;5009923;28;20174;-55
2023/10/23 09:18:51;;;;;;;1999.90;999.90;;;;;;;18.09;100.00;95025.31;5009178;28;20163;-55
2023/10/23 09:21:17;;;;;;;1999.90;999.90;;;;;;;18.14;100.00;95027.47;5010087;28;20155;-55
2023/10/23 09:24:09;;;;;;;1999.90;999.90;;;;;;;18.14;100.00;95038.53;5009370;28;20204;-55
2023/10/23 09:26:34;;;;;;;1999.90;999.90;;;;;;;17.34;100.00;95037.13;5005955;28;20179;-54
2023/10/23 09:29:00;;;;;;;1999.90;999.90;;;;;;;17.67;100.00;95024.34;5009764;28;20165;-55
2023/10/23 09:31:26;;;;;;;1999.90;999.90;;;;;;;17.47;100.00;95035.81;5009118;28;20198;-56
2023/10/23 09:33:51;;;;;;;1999.90;999.90;;;;;;;17.77;100.00;95036.97;5009652;28;20230;-55
2023/10/23 09:36:18;;;;;;;1999.90;999.90;;;;;;;17.49;100.00;95032.59;5009045;28;20262;-57
2023/10/23 09:38:54;;;;;;;1999.90;999.90;;;;;;;17.23;100.00;95039.53;5009324;28;20225;-56
2023/10/23 09:41:20;;;;;;;1999.90;999.90;;;;;;;16.42;100.00;95034.34;5008452;28;20414;-56
2023/10/23 09:43:47;;;;;;;1999.90;999.90;;;;;;;16.17;100.00;95040.72;5008650;28;20182;-56
2023/10/23 09:46:13;;;;;;;1999.90;999.90;;;;;;;16.36;100.00;95050.66;5008821;28;20175;-56
2023/10/23 09:48:43;;;;;;;1999.90;999.90;;;;;;;16.29;100.00;95044.66;5008792;28;20171;-55
2023/10/23 09:51:18;;;;;;;1999.90;999.90;;;;;;;16.62;100.00;95034.03;5008802;28;20171;-55
2023/10/23 09:53:58;;;;;;;1999.90;999.90;;;;;;;16.72;100.00;95035.63;5009502;28;20355;-57
2023/10/23 09:56:26;;;;;;;1999.90;999.90;;;;;;;16.53;100.00;95034.72;5008939;28;20195;-56
2023/10/23 09:59:04;;;;;;;1999.90;999.90;;;;;;;16.67;100.00;95030.69;5008490;28;20172;-56
2023/10/23 10:01:40;;;;;;;1999.90;999.90;;;;;;;16.06;100.00;95023.81;5009027;28;20163;-55
2023/10/23 10:04:23;;;;;;;1999.90;999.90;;;;;;;16.21;100.00;95024.84;5009023;28;20197;-54
2023/10/23 10:06:55;;;;;;;1999.90;999.90;;;;;;;16.30;100.00;95016.66;5009008;28;20202;-56
2023/10/23 10:09:22;;;;;;;1999.90;999.90;;;;;;;16.44;100.00;95024.41;5008431;28;20163;-56
2023/10/23 10:11:48;;;;;;;1999.90;999.90;;;;;;;16.47;100.00;95028.28;5008316;28;20167;-55
2023/10/23 10:14:16;;;;;;;1999.90;999.90;;;;;;;16.19;100.00;95015.47;5008555;28;20174;-55
2023/10/23 10:16:41;;;;;;;1999.90;999.90;;;;;;;15.73;100.00;95024.56;5008631;28;20279;-55
2023/10/23 10:19:07;;;;;;;1999.90;999.90;;;;;;;15.97;100.00;95020.22;5008805;28;20167;-55
2023/10/23 10:21:45;;;;;;;1999.90;999.90;;;;;;;16.59;100.00;95021.91;5008743;28;20263;-54
2023/10/23 10:24:13;;;;;;;1999.90;999.90;;;;;;;16.88;100.00;95025.13;5008623;28;20245;-54
2023/10/23 10:26:38;;;;;;;1999.90;999.90;;;;;;;17.30;100.00;95012.41;5008038;28;20218;-54
2023/10/23 10:29:04;;;;;;;1999.90;999.90;;;;;;;17.19;100.00;95008.56;5008487;28;20176;-54
2023/10/23 10:32:00;;;;;;;1999.90;999.90;;;;;;;17.50;100.00;94992.69;5008378;28;20175;-56
2023/10/23 10:34:27;;;;;;;1999.90;999.90;;;;;;;18.22;100.00;94982.47;5008584;28;20176;-57
2023/10/23 10:36:53;;;;;;;1999.90;999.90;;;;;;;17.96;100.00;94977.72;5008141;28;20210;-56
2023/10/23 10:39:19;;;;;;;1999.90;999.90;;;;;;;18.58;100.00;94990.72;5007970;28;20195;-57
2023/10/23 10:41:44;;;;;;;1999.90;999.90;;;;;;;18.88;100.00;94980.66;5007607;28;20179;-54
2023/10/23 10:44:12;;;;;;;1999.90;999.90;;;;;;;19.83;100.00;94976.78;5008399;28;20179;-55
2023/10/23 10:46:42;;;;;;;1999.90;999.90;;;;;;;18.69;100.00;94976.41;5008260;28;20218;-55
2023/10/23 10:49:07;;;;;;;1999.90;999.90;;;;;;;17.28;100.00;94967.16;5007794;28;20202;-56